createdAt,value
2023-01-25T00:01:22.765Z,102430.16
2023-01-25T00:06:28.415Z,102425.81
2023-01-25T00:11:32.479Z,102424.03
2023-01-25T00:16:38.341Z,102422.41
2023-01-25T00:21:44.814Z,102418.78
2023-01-25T00:26:48.188Z,102422.25
2023-01-25T00:32:03.975Z,102419.00
2023-01-25T00:37:29.679Z,102417.31
2023-01-25T00:42:33.285Z,102422.72
2023-01-25T00:47:38.021Z,102420.06
2023-01-25T00:52:42.119Z,102418.19
2023-01-25T00:57:45.510Z,102419.16
2023-01-25T01:02:50.096Z,102409.56
2023-01-25T01:07:53.142Z,102414.59
2023-01-25T01:12:56.282Z,102413.78
2023-01-25T01:18:54.617Z,102405.09
2023-01-25T01:24:18.120Z,102403.50
2023-01-25T01:29:21.781Z,102395.75
2023-01-25T01:34:25.331Z,102392.19
2023-01-25T01:39:30.131Z,102390.47
2023-01-25T01:44:48.706Z,102384.56
2023-01-25T01:50:00.030Z,102365.63
2023-01-25T01:55:10.748Z,102358.63
2023-01-25T02:00:20.638Z,102345.53
2023-01-25T02:05:31.590Z,102331.72
2023-01-25T02:10:37.791Z,102337.13
2023-01-25T02:15:44.887Z,102330.13
2023-01-25T02:20:51.688Z,102319.78
2023-01-25T02:25:58.804Z,102318.06
2023-01-25T02:31:02.030Z,102303.53
2023-01-25T02:36:21.369Z,102313.97
2023-01-25T02:41:33.822Z,102308.72
2023-01-25T02:46:39.600Z,102313.09
2023-01-25T02:51:45.088Z,102306.38
2023-01-25T02:56:49.982Z,102309.78
2023-01-25T03:01:53.131Z,102300.16
2023-01-25T03:06:56.495Z,102294.19
2023-01-25T03:12:01.616Z,102285.38
2023-01-25T03:17:05.412Z,102293.06
2023-01-25T03:22:10.521Z,102279.22
2023-01-25T03:27:17.264Z,102275.63
2023-01-25T03:32:20.522Z,102262.72
2023-01-25T03:37:23.605Z,102263.53
2023-01-25T03:42:30.640Z,102259.16
2023-01-25T03:47:33.793Z,102262.06
2023-01-25T03:52:40.970Z,102261.09
2023-01-25T03:57:45.640Z,102265.41
2023-01-25T04:02:48.911Z,102259.44
2023-01-25T04:07:52.180Z,102263.78
2023-01-25T04:12:56.667Z,102256.22
2023-01-25T04:17:59.673Z,102249.19
2023-01-25T04:23:03.016Z,102246.69
2023-01-25T04:28:07.738Z,102242.41
2023-01-25T04:33:12.070Z,102233.03
2023-01-25T04:38:15.341Z,102233.91
2023-01-25T04:43:20.956Z,102235.72
2023-01-25T04:48:24.256Z,102230.41
2023-01-25T04:53:27.447Z,102223.56
2023-01-25T04:58:32.371Z,102226.16
2023-01-25T05:03:38.108Z,102218.44
2023-01-25T05:08:41.176Z,102216.69
2023-01-25T05:13:45.830Z,102211.34
2023-01-25T05:18:49.511Z,102208.94
2023-01-25T05:23:52.714Z,102213.06
2023-01-25T05:28:57.564Z,102220.66
2023-01-25T05:34:00.730Z,102217.16
2023-01-25T05:39:06.852Z,102215.66
2023-01-25T05:44:11.854Z,102203.59
2023-01-25T05:49:21.823Z,102208.75
2023-01-25T05:54:25.023Z,102205.22
2023-01-25T05:59:29.586Z,102198.25
2023-01-25T06:04:32.772Z,102199.97
2023-01-25T06:09:35.877Z,102208.94
2023-01-25T06:14:41.178Z,102199.84
2023-01-25T06:19:44.389Z,102193.88
2023-01-25T06:24:47.400Z,102193.66
2023-01-25T06:29:55.101Z,102193.00
2023-01-25T06:34:58.383Z,102193.00
2023-01-25T06:40:07.842Z,102191.06
2023-01-25T06:45:13.407Z,102184.81
2023-01-25T06:50:19.710Z,102184.00
2023-01-25T06:55:24.054Z,102183.19
2023-01-25T07:00:31.224Z,102172.91
2023-01-25T07:05:34.668Z,102168.59
2023-01-25T07:10:56.527Z,102165.88
2023-01-25T07:16:03.316Z,102160.53
2023-01-25T07:21:16.347Z,102161.25
2023-01-25T07:26:21.808Z,102157.16
2023-01-25T07:31:27.611Z,102155.63
2023-01-25T07:36:30.772Z,102148.78
2023-01-25T07:41:33.871Z,102140.84
2023-01-25T07:46:38.332Z,102133.00
2023-01-25T07:51:44.398Z,102137.09
2023-01-25T07:56:47.557Z,102122.38
2023-01-25T08:01:53.546Z,102114.69
2023-01-25T08:06:57.842Z,102112.03
2023-01-25T08:12:01.148Z,102118.97
2023-01-25T08:17:06.002Z,102120.91
2023-01-25T08:22:09.752Z,102118.97
2023-01-25T08:27:13.186Z,102122.41
2023-01-25T08:32:18.075Z,102113.69
2023-01-25T08:37:21.365Z,102110.13
2023-01-25T08:42:24.615Z,102121.19
2023-01-25T08:47:29.133Z,102114.25
2023-01-25T08:52:32.324Z,102110.75
2023-01-25T08:57:35.385Z,102101.28
2023-01-25T09:02:40.147Z,102090.94
2023-01-25T09:07:43.272Z,102089.19
2023-01-25T09:12:46.426Z,102086.59
2023-01-25T09:17:53.236Z,102086.47
2023-01-25T09:22:56.515Z,102081.13
2023-01-25T09:28:00.392Z,102075.91
2023-01-25T09:33:05.285Z,102075.75
2023-01-25T09:38:08.778Z,102072.94
2023-01-25T09:43:26.591Z,102072.00
2023-01-25T09:48:40.937Z,102072.06
2023-01-25T09:53:54.237Z,102059.09
2023-01-25T09:59:00.902Z,102048.03
2023-01-25T10:04:12.547Z,102059.09
2023-01-25T10:09:25.957Z,102046.16
2023-01-25T10:14:35.602Z,102041.88
2023-01-25T10:19:55.366Z,102032.31
2023-01-25T10:25:22.220Z,102022.84
2023-01-25T10:30:30.510Z,102014.00
2023-01-25T10:35:43.252Z,102007.00
2023-01-25T10:40:54.477Z,102000.06
2023-01-25T10:45:57.695Z,101995.63
2023-01-25T10:51:02.221Z,101978.34
2023-01-25T10:56:26.892Z,101978.06
2023-01-25T11:01:31.838Z,101971.22
2023-01-25T11:06:38.584Z,101966.06
2023-01-25T11:11:42.415Z,101953.09
2023-01-25T11:16:48.075Z,101948.81
2023-01-25T11:21:55.273Z,101942.09
2023-01-25T11:27:18.053Z,101935.25
2023-01-25T11:32:25.193Z,101925.06
2023-01-25T11:37:45.615Z,101907.69
2023-01-25T11:43:04.471Z,101898.13
2023-01-25T11:48:32.322Z,101892.94
2023-01-25T11:53:51.871Z,101892.16
2023-01-25T11:59:23.617Z,101870.25
2023-01-25T12:04:58.829Z,101862.41
2023-01-25T12:10:21.733Z,101853.84
2023-01-25T12:16:04.846Z,101840.66
2023-01-25T12:21:30.530Z,101833.91
2023-01-25T12:26:46.482Z,101820.94
2023-01-25T12:31:56.484Z,101810.72
2023-01-25T12:37:01.861Z,101813.22
2023-01-25T12:42:16.337Z,101802.09
2023-01-25T12:47:24.583Z,101789.13
2023-01-25T12:52:33.112Z,101781.22
2023-01-25T12:57:45.348Z,101772.84
2023-01-25T13:03:13.629Z,101758.31
2023-01-25T13:08:32.115Z,101753.78
2023-01-25T13:13:36.945Z,101740.84
2023-01-25T13:18:41.675Z,101734.72
2023-01-25T13:23:47.735Z,101726.75
2023-01-25T13:28:53.352Z,101721.59
2023-01-25T13:33:57.519Z,101712.03
2023-01-25T13:39:02.427Z,101705.34
2023-01-25T13:44:28.375Z,101695.78
2023-01-25T13:49:38.234Z,101684.56
2023-01-25T13:54:44.834Z,101680.97
2023-01-25T13:59:52.432Z,101675.88
2023-01-25T14:04:58.700Z,101671.47
2023-01-25T14:10:05.635Z,101664.66
2023-01-25T14:15:18.858Z,101661.25
2023-01-25T14:20:23.195Z,101652.50
2023-01-25T14:25:27.404Z,101645.25
2023-01-25T14:30:34.288Z,101649.78
2023-01-25T14:35:42.782Z,101641.09
2023-01-25T14:40:56.053Z,101633.19
2023-01-25T14:46:00.881Z,101634.16
2023-01-25T14:51:07.918Z,101630.56
2023-01-25T14:56:30.572Z,101609.97
2023-01-25T15:01:39.447Z,101601.34
2023-01-25T15:06:48.668Z,101602.25
2023-01-25T15:12:00.704Z,101596.63
2023-01-25T15:17:05.243Z,101591.00
2023-01-25T15:22:09.997Z,101590.22
2023-01-25T15:27:19.867Z,101584.75
2023-01-25T15:32:25.399Z,101576.13
2023-01-25T15:37:28.561Z,101567.38
2023-01-25T15:42:32.665Z,101563.06
2023-01-25T15:47:37.716Z,101560.59
2023-01-25T15:52:42.077Z,101554.56
2023-01-25T15:57:46.969Z,101549.38
2023-01-25T16:02:51.941Z,101537.31
2023-01-25T16:07:57.609Z,101538.00
2023-01-25T16:13:00.864Z,101531.09
2023-01-25T16:18:05.620Z,101525.94
2023-01-25T16:23:09.441Z,101523.47
2023-01-25T16:28:15.695Z,101525.34
2023-01-25T16:33:24.418Z,101522.66
2023-01-25T16:38:27.553Z,101516.81
2023-01-25T16:43:42.070Z,101510.25
2023-01-25T16:48:48.764Z,101507.50
2023-01-25T16:53:55.585Z,101509.34
2023-01-25T16:59:01.644Z,101508.72
2023-01-25T17:04:06.289Z,101496.75
2023-01-25T17:09:21.877Z,101491.38
2023-01-25T17:14:25.926Z,101485.44
2023-01-25T17:19:30.711Z,101477.69
2023-01-25T17:24:35.926Z,101467.41
2023-01-25T17:29:39.128Z,101471.78
2023-01-25T17:34:43.677Z,101464.88
2023-01-25T17:39:47.744Z,101457.88
2023-01-25T17:44:50.764Z,101453.41
2023-01-25T17:49:55.372Z,101458.88
2023-01-25T17:55:00.531Z,101444.91
2023-01-25T18:00:06.118Z,101449.63
2023-01-25T18:05:10.858Z,101436.69
2023-01-25T18:10:14.681Z,101426.66
2023-01-25T18:15:18.308Z,101416.41
2023-01-25T18:20:22.975Z,101410.63
2023-01-25T18:25:32.618Z,101411.38
2023-01-25T18:30:38.265Z,101402.56
2023-01-25T18:35:43.976Z,101404.34
2023-01-25T18:40:47.374Z,101396.75
2023-01-25T18:45:55.655Z,101377.75
2023-01-25T18:51:01.433Z,101378.53
2023-01-25T18:56:07.327Z,101373.50
2023-01-25T19:01:14.208Z,101378.91
2023-01-25T19:06:20.286Z,101367.75
2023-01-25T19:11:25.246Z,101368.38
2023-01-25T19:16:28.593Z,101361.41
2023-01-25T19:21:34.613Z,101360.50
2023-01-25T19:26:37.800Z,101358.09
2023-01-25T19:31:41.241Z,101355.31
2023-01-25T19:36:50.233Z,101353.59
2023-01-25T19:41:54.523Z,101337.19
2023-01-25T19:46:58.781Z,101333.69
2023-01-25T19:52:03.723Z,101330.19
2023-01-25T19:57:07.222Z,101326.00
2023-01-25T20:02:16.179Z,101321.66
2023-01-25T20:07:20.799Z,101317.16
2023-01-25T20:12:23.945Z,101303.41
2023-01-25T20:17:27.139Z,101289.56
2023-01-25T20:22:31.787Z,101292.06
2023-01-25T20:27:35.054Z,101280.19
2023-01-25T20:32:38.274Z,101264.78
2023-01-25T20:37:44.040Z,101264.78
2023-01-25T20:42:47.240Z,101259.50
2023-01-25T20:47:50.578Z,101254.19
2023-01-25T20:52:55.225Z,101243.03
2023-01-25T20:57:59.275Z,101238.03
2023-01-25T21:03:02.965Z,101238.03
2023-01-25T21:08:10.410Z,101241.41
2023-01-25T21:13:14.204Z,101233.72
2023-01-25T21:18:20.580Z,101236.09
2023-01-25T21:23:28.497Z,101228.47
2023-01-25T21:28:36.625Z,101232.03
2023-01-25T21:33:44.703Z,101213.13
2023-01-25T21:38:50.900Z,101220.03
2023-01-25T21:44:17.176Z,101210.56
2023-01-25T21:49:37.892Z,101225.19
2023-01-25T21:54:43.201Z,101216.56
2023-01-25T21:59:46.648Z,101215.53
2023-01-25T22:04:49.805Z,101201.94
2023-01-25T22:09:54.329Z,101201.84
2023-01-25T22:14:57.723Z,101204.50
2023-01-25T22:20:01.119Z,101194.94
2023-01-25T22:25:06.509Z,101188.75
2023-01-25T22:30:12.437Z,101176.63
2023-01-25T22:35:15.889Z,101177.53
2023-01-25T22:40:20.952Z,101166.50
2023-01-25T22:45:24.312Z,101163.91
2023-01-25T22:50:27.514Z,101154.41
2023-01-25T22:55:33.765Z,101153.63
2023-01-25T23:00:37.518Z,101155.44
2023-01-25T23:05:41.380Z,101143.56
2023-01-25T23:10:46.078Z,101139.38
2023-01-25T23:15:49.417Z,101135.94
2023-01-25T23:20:52.634Z,101138.63
2023-01-25T23:25:58.274Z,101131.78
2023-01-25T23:31:17.998Z,101132.53
2023-01-25T23:36:23.587Z,101128.41
2023-01-25T23:41:30.369Z,101127.69
2023-01-25T23:46:33.841Z,101120.84
2023-01-25T23:51:37.246Z,101121.56
2023-01-25T23:56:41.956Z,101113.94
